sensor_id;sensor_type;location;lat;lon;timestamp;pressure;altitude;pressure_sealevel;temperature;humidity
13734;BME280;43298;52.560;13.508;2023-03-01T00:02:21;102572.06;;;-4.36;100.00
13734;BME280;43298;52.560;13.508;2023-03-01T00:04:47;102567.47;;;-4.27;100.00
13734;BME280;43298;52.560;13.508;2023-03-01T00:07:13;102560.81;;;-4.25;100.00
13734;BME280;43298;52.560;13.508;2023-03-01T00:09:39;102560.56;;;-4.29;100.00
13734;BME280;43298;52.560;13.508;2023-03-01T00:12:06;102555.53;;;-4.29;100.00
13734;BME280;43298;52.560;13.508;2023-03-01T00:14:32;102562.41;;;-4.27;100.00
13734;BME280;43298;52.560;13.508;2023-03-01T00:16:58;102561.03;;;-4.38;100.00
13734;BME280;43298;52.560;13.508;2023-03-01T00:19:24;102554.88;;;-4.43;100.00
13734;BME280;43298;52.560;13.508;2023-03-01T00:21:49;102551.56;;;-4.42;100.00
13734;BME280;43298;52.560;13.508;2023-03-01T00:24:15;102543.88;;;-4.45;100.00
13734;BME280;43298;52.560;13.508;2023-03-01T00:26:42;102552.59;;;-4.38;100.00
13734;BME280;43298;52.560;13.508;2023-03-01T00:29:08;102542.19;;;-4.44;100.00
13734;BME280;43298;52.560;13.508;2023-03-01T00:31:34;102543.28;;;-4.39;100.00
13734;BME280;43298;52.560;13.508;2023-03-01T00:34:03;102550.22;;;-4.35;100.00
13734;BME280;43298;52.560;13.508;2023-03-01T00:36:33;102551.38;;;-4.46;100.00
13734;BME280;43298;52.560;13.508;2023-03-01T00:39:00;102551.00;;;-4.54;100.00
13734;BME280;43298;52.560;13.508;2023-03-01T00:41:26;102539.91;;;-4.57;100.00
13734;BME280;43298;52.560;13.508;2023-03-01T00:43:53;102545.88;;;-4.55;100.00
13734;BME280;43298;52.560;13.508;2023-03-01T00:46:22;102546.09;;;-4.51;100.00
13734;BME280;43298;52.560;13.508;2023-03-01T00:48:49;102537.06;;;-4.46;100.00
13734;BME280;43298;52.560;13.508;2023-03-01T00:51:25;102549.56;;;-4.31;100.00
13734;BME280;43298;52.560;13.508;2023-03-01T00:53:56;102545.81;;;-4.39;100.00
13734;BME280;43298;52.560;13.508;2023-03-01T00:56:23;102541.84;;;-4.34;100.00
13734;BME280;43298;52.560;13.508;2023-03-01T00:58:49;102536.56;;;-4.39;100.00
13734;BME280;43298;52.560;13.508;2023-03-01T01:01:23;102529.94;;;-4.37;100.00
13734;BME280;43298;52.560;13.508;2023-03-01T01:03:54;102526.75;;;-4.33;100.00
13734;BME280;43298;52.560;13.508;2023-03-01T01:06:28;102529.88;;;-4.38;100.00
13734;BME280;43298;52.560;13.508;2023-03-01T01:08:55;102534.63;;;-4.44;100.00
13734;BME280;43298;52.560;13.508;2023-03-01T01:11:26;102532.69;;;-4.50;100.00
13734;BME280;43298;52.560;13.508;2023-03-01T01:13:52;102530.56;;;-4.58;100.00
13734;BME280;43298;52.560;13.508;2023-03-01T01:16:22;102522.25;;;-4.57;100.00
13734;BME280;43298;52.560;13.508;2023-03-01T01:18:49;102514.44;;;-4.62;100.00
13734;BME280;43298;52.560;13.508;2023-03-01T01:21:18;102512.66;;;-4.64;100.00
13734;BME280;43298;52.560;13.508;2023-03-01T01:23:45;102509.41;;;-4.62;100.00
13734;BME280;43298;52.560;13.508;2023-03-01T01:26:18;102514.16;;;-4.50;100.00
13734;BME280;43298;52.560;13.508;2023-03-01T01:28:45;102508.59;;;-4.61;100.00
13734;BME280;43298;52.560;13.508;2023-03-01T01:31:11;102498.09;;;-4.70;100.00
13734;BME280;43298;52.560;13.508;2023-03-01T01:33:38;102491.59;;;-4.65;100.00
13734;BME280;43298;52.560;13.508;2023-03-01T01:36:08;102481.84;;;-4.75;100.00
13734;BME280;43298;52.560;13.508;2023-03-01T01:38:36;102483.06;;;-4.67;100.00
13734;BME280;43298;52.560;13.508;2023-03-01T01:41:04;102486.03;;;-4.75;100.00
13734;BME280;43298;52.560;13.508;2023-03-01T01:43:35;102482.34;;;-4.82;100.00
13734;BME280;43298;52.560;13.508;2023-03-01T01:46:28;102484.88;;;-4.82;100.00
13734;BME280;43298;52.560;13.508;2023-03-01T01:48:59;102486.03;;;-4.75;100.00
13734;BME280;43298;52.560;13.508;2023-03-01T01:51:33;102485.81;;;-4.80;100.00
13734;BME280;43298;52.560;13.508;2023-03-01T01:54:23;102479.06;;;-4.81;100.00
13734;BME280;43298;52.560;13.508;2023-03-01T01:56:59;102480.63;;;-4.83;100.00
13734;BME280;43298;52.560;13.508;2023-03-01T01:59:29;102484.38;;;-4.75;100.00
13734;BME280;43298;52.560;13.508;2023-03-01T02:01:59;102483.56;;;-4.74;100.00
13734;BME280;43298;52.560;13.508;2023-03-01T02:04:28;102495.03;;;-4.80;100.00
13734;BME280;43298;52.560;13.508;2023-03-01T02:07:22;102484.50;;;-4.72;100.00
13734;BME280;43298;52.560;13.508;2023-03-01T02:09:51;102493.16;;;-4.67;100.00
13734;BME280;43298;52.560;13.508;2023-03-01T02:12:23;102495.34;;;-4.74;100.00
13734;BME280;43298;52.560;13.508;2023-03-01T02:14:49;102495.91;;;-4.80;100.00
13734;BME280;43298;52.560;13.508;2023-03-01T02:17:17;102498.19;;;-4.84;100.00
13734;BME280;43298;52.560;13.508;2023-03-01T02:20:08;102502.09;;;-4.73;100.00
13734;BME280;43298;52.560;13.508;2023-03-01T02:22:39;102501.38;;;-4.71;100.00
13734;BME280;43298;52.560;13.508;2023-03-01T02:30:49;102500.81;;;-4.99;100.00
13734;BME280;43298;52.560;13.508;2023-03-01T02:33:36;102498.53;;;-4.94;100.00
13734;BME280;43298;52.560;13.508;2023-03-01T02:36:15;102501.28;;;-4.90;100.00
13734;BME280;43298;52.560;13.508;2023-03-01T02:38:42;102498.31;;;-4.99;100.00
13734;BME280;43298;52.560;13.508;2023-03-01T02:41:11;102492.34;;;-5.01;100.00
13734;BME280;43298;52.560;13.508;2023-03-01T02:43:39;102498.75;;;-5.07;100.00
13734;BME280;43298;52.560;13.508;2023-03-01T02:46:18;102491.53;;;-5.17;100.00
13734;BME280;43298;52.560;13.508;2023-03-01T02:48:49;102492.69;;;-5.11;100.00
13734;BME280;43298;52.560;13.508;2023-03-01T02:51:52;102489.22;;;-5.13;100.00
13734;BME280;43298;52.560;13.508;2023-03-01T02:54:31;102481.94;;;-5.07;100.00
13734;BME280;43298;52.560;13.508;2023-03-01T02:56:59;102476.25;;;-5.03;100.00
13734;BME280;43298;52.560;13.508;2023-03-01T02:59:31;102475.44;;;-5.19;100.00
13734;BME280;43298;52.560;13.508;2023-03-01T03:02:00;102468.34;;;-5.10;100.00
13734;BME280;43298;52.560;13.508;2023-03-01T03:04:26;102471.75;;;-5.26;100.00
13734;BME280;43298;52.560;13.508;2023-03-01T03:06:52;102474.78;;;-5.33;100.00
13734;BME280;43298;52.560;13.508;2023-03-01T03:09:18;102470.38;;;-5.37;100.00
13734;BME280;43298;52.560;13.508;2023-03-01T03:11:44;102471.84;;;-5.40;100.00
13734;BME280;43298;52.560;13.508;2023-03-01T03:14:13;102476.09;;;-5.06;100.00
13734;BME280;43298;52.560;13.508;2023-03-01T03:16:48;102473.16;;;-5.15;100.00
13734;BME280;43298;52.560;13.508;2023-03-01T03:19:16;102473.47;;;-5.25;100.00
13734;BME280;43298;52.560;13.508;2023-03-01T03:21:42;102468.00;;;-5.34;100.00
13734;BME280;43298;52.560;13.508;2023-03-01T03:24:08;102460.53;;;-5.32;100.00
13734;BME280;43298;52.560;13.508;2023-03-01T03:26:34;102456.00;;;-5.38;100.00
13734;BME280;43298;52.560;13.508;2023-03-01T03:29:00;102465.84;;;-5.26;100.00
13734;BME280;43298;52.560;13.508;2023-03-01T03:31:26;102460.97;;;-5.23;100.00
13734;BME280;43298;52.560;13.508;2023-03-01T03:33:52;102457.44;;;-5.27;100.00
13734;BME280;43298;52.560;13.508;2023-03-01T03:36:21;102449.88;;;-5.27;100.00
13734;BME280;43298;52.560;13.508;2023-03-01T03:38:47;102448.53;;;-5.36;100.00
13734;BME280;43298;52.560;13.508;2023-03-01T03:41:15;102445.50;;;-5.47;100.00
13734;BME280;43298;52.560;13.508;2023-03-01T03:43:42;102437.47;;;-5.56;100.00
13734;BME280;43298;52.560;13.508;2023-03-01T03:46:10;102438.50;;;-5.52;100.00
13734;BME280;43298;52.560;13.508;2023-03-01T03:48:43;102435.81;;;-5.55;100.00
13734;BME280;43298;52.560;13.508;2023-03-01T03:51:15;102437.38;;;-5.57;100.00
13734;BME280;43298;52.560;13.508;2023-03-01T03:53:42;102432.81;;;-5.48;100.00
13734;BME280;43298;52.560;13.508;2023-03-01T03:56:08;102430.88;;;-5.54;100.00
13734;BME280;43298;52.560;13.508;2023-03-01T03:58:35;102433.06;;;-5.44;100.00
13734;BME280;43298;52.560;13.508;2023-03-01T04:01:01;102428.50;;;-5.51;100.00
13734;BME280;43298;52.560;13.508;2023-03-01T04:03:29;102427.75;;;-5.66;100.00
13734;BME280;43298;52.560;13.508;2023-03-01T04:05:58;102430.75;;;-5.73;100.00
13734;BME280;43298;52.560;13.508;2023-03-01T04:08:25;102426.88;;;-5.66;100.00
13734;BME280;43298;52.560;13.508;2023-03-01T04:10:58;102437.25;;;-5.60;100.00
13734;BME280;43298;52.560;13.508;2023-03-01T04:13:25;102426.72;;;-5.36;100.00
13734;BME280;43298;52.560;13.508;2023-03-01T04:15:53;102427.63;;;-5.51;100.00
13734;BME280;43298;52.560;13.508;2023-03-01T04:18:22;102425.44;;;-5.61;100.00
13734;BME280;43298;52.560;13.508;2023-03-01T04:20:49;102428.03;;;-5.60;100.00
13734;BME280;43298;52.560;13.508;2023-03-01T04:23:18;102435.66;;;-5.58;100.00
13734;BME280;43298;52.560;13.508;2023-03-01T04:25:51;102432.81;;;-5.48;100.00
13734;BME280;43298;52.560;13.508;2023-03-01T04:28:38;102427.19;;;-5.60;100.00
13734;BME280;43298;52.560;13.508;2023-03-01T04:31:09;102428.75;;;-5.62;100.00
13734;BME280;43298;52.560;13.508;2023-03-01T04:33:50;102431.38;;;-5.77;100.00
13734;BME280;43298;52.560;13.508;2023-03-01T04:36:22;102422.06;;;-5.78;100.00
13734;BME280;43298;52.560;13.508;2023-03-01T04:38:49;102426.69;;;-5.87;100.00
13734;BME280;43298;52.560;13.508;2023-03-01T04:41:18;102423.22;;;-5.89;100.00
13734;BME280;43298;52.560;13.508;2023-03-01T04:43:44;102424.00;;;-5.90;100.00
13734;BME280;43298;52.560;13.508;2023-03-01T04:46:17;102428.50;;;-5.67;100.00
13734;BME280;43298;52.560;13.508;2023-03-01T04:48:44;102419.63;;;-5.76;100.00
13734;BME280;43298;52.560;13.508;2023-03-01T04:51:11;102424.38;;;-5.82;100.00
13734;BME280;43298;52.560;13.508;2023-03-01T04:53:39;102431.56;;;-5.90;100.00
13734;BME280;43298;52.560;13.508;2023-03-01T04:56:06;102430.50;;;-5.77;100.00
13734;BME280;43298;52.560;13.508;2023-03-01T04:58:32;102424.88;;;-5.56;100.00
13734;BME280;43298;52.560;13.508;2023-03-01T05:00:58;102429.53;;;-5.63;100.00
13734;BME280;43298;52.560;13.508;2023-03-01T05:03:24;102429.16;;;-5.71;100.00
13734;BME280;43298;52.560;13.508;2023-03-01T05:05:52;102414.94;;;-5.86;100.00
13734;BME280;43298;52.560;13.508;2023-03-01T05:08:18;102420.94;;;-5.84;100.00
13734;BME280;43298;52.560;13.508;2023-03-01T05:10:51;102417.47;;;-5.86;100.00
13734;BME280;43298;52.560;13.508;2023-03-01T05:13:20;102416.44;;;-5.90;100.00
13734;BME280;43298;52.560;13.508;2023-03-01T05:15:55;102412.97;;;-5.92;100.00
13734;BME280;43298;52.560;13.508;2023-03-01T05:18:22;102413.84;;;-5.91;100.00
13734;BME280;43298;52.560;13.508;2023-03-01T05:20:52;102415.47;;;-5.76;100.00
13734;BME280;43298;52.560;13.508;2023-03-01T05:23:25;102415.19;;;-5.82;100.00
13734;BME280;43298;52.560;13.508;2023-03-01T05:25:50;102408.97;;;-5.88;100.00
13734;BME280;43298;52.560;13.508;2023-03-01T05:28:19;102412.22;;;-5.91;100.00
13734;BME280;43298;52.560;13.508;2023-03-01T05:30:46;102411.75;;;-5.66;100.00
13734;BME280;43298;52.560;13.508;2023-03-01T05:33:12;102410.53;;;-5.57;100.00
13734;BME280;43298;52.560;13.508;2023-03-01T05:35:45;102407.13;;;-5.75;100.00
13734;BME280;43298;52.560;13.508;2023-03-01T05:38:12;102405.09;;;-5.82;100.00
13734;BME280;43298;52.560;13.508;2023-03-01T05:40:46;102404.50;;;-5.94;100.00
13734;BME280;43298;52.560;13.508;2023-03-01T05:43:15;102404.00;;;-6.03;100.00
13734;BME280;43298;52.560;13.508;2023-03-01T05:45:42;102402.28;;;-6.04;100.00
13734;BME280;43298;52.560;13.508;2023-03-01T05:48:09;102401.34;;;-5.90;100.00
13734;BME280;43298;52.560;13.508;2023-03-01T05:50:42;102407.88;;;-5.60;100.00
13734;BME280;43298;52.560;13.508;2023-03-01T05:53:17;102404.19;;;-5.84;100.00
13734;BME280;43298;52.560;13.508;2023-03-01T05:55:45;102403.47;;;-5.81;100.00
13734;BME280;43298;52.560;13.508;2023-03-01T05:58:16;102411.56;;;-5.87;100.00
13734;BME280;43298;52.560;13.508;2023-03-01T06:00:44;102406.47;;;-5.88;100.00
13734;BME280;43298;52.560;13.508;2023-03-01T06:03:12;102411.66;;;-5.85;100.00
13734;BME280;43298;52.560;13.508;2023-03-01T06:05:39;102416.09;;;-5.80;100.00
13734;BME280;43298;52.560;13.508;2023-03-01T06:08:06;102410.88;;;-5.67;100.00
13734;BME280;43298;52.560;13.508;2023-03-01T06:10:32;102407.13;;;-5.75;100.00
13734;BME280;43298;52.560;13.508;2023-03-01T06:12:58;102410.94;;;-5.65;100.00
13734;BME280;43298;52.560;13.508;2023-03-01T06:15:25;102408.66;;;-5.45;100.00
13734;BME280;43298;52.560;13.508;2023-03-01T06:17:53;102408.56;;;-5.46;100.00
13734;BME280;43298;52.560;13.508;2023-03-01T06:20:23;102405.63;;;-5.38;100.00
13734;BME280;43298;52.560;13.508;2023-03-01T06:22:50;102409.66;;;-5.24;100.00
13734;BME280;43298;52.560;13.508;2023-03-01T06:25:19;102411.84;;;-5.14;100.00
13734;BME280;43298;52.560;13.508;2023-03-01T06:27:46;102416.78;;;-4.99;100.00
13734;BME280;43298;52.560;13.508;2023-03-01T06:30:16;102411.66;;;-5.01;100.00
13734;BME280;43298;52.560;13.508;2023-03-01T06:32:43;102417.56;;;-5.00;100.00
13734;BME280;43298;52.560;13.508;2023-03-01T06:35:10;102413.75;;;-4.92;100.00
13734;BME280;43298;52.560;13.508;2023-03-01T06:37:36;102427.19;;;-4.92;100.00
13734;BME280;43298;52.560;13.508;2023-03-01T06:40:04;102435.06;;;-4.86;100.00
13734;BME280;43298;52.560;13.508;2023-03-01T06:42:37;102438.44;;;-4.68;100.00
13734;BME280;43298;52.560;13.508;2023-03-01T06:45:05;102430.66;;;-4.55;100.00
13734;BME280;43298;52.560;13.508;2023-03-01T06:47:32;102430.38;;;-4.43;100.00
13734;BME280;43298;52.560;13.508;2023-03-01T06:50:02;102424.31;;;-4.28;100.00
13734;BME280;43298;52.560;13.508;2023-03-01T06:52:28;102420.22;;;-4.07;100.00
13734;BME280;43298;52.560;13.508;2023-03-01T06:54:55;102421.44;;;-3.80;100.00
13734;BME280;43298;52.560;13.508;2023-03-01T06:57:20;102425.78;;;-3.57;100.00
13734;BME280;43298;52.560;13.508;2023-03-01T06:59:47;102427.22;;;-3.43;100.00
13734;BME280;43298;52.560;13.508;2023-03-01T07:02:13;102431.31;;;-3.05;100.00
13734;BME280;43298;52.560;13.508;2023-03-01T07:04:41;102427.16;;;-3.04;100.00
13734;BME280;43298;52.560;13.508;2023-03-01T07:07:07;102435.47;;;-2.86;100.00
13734;BME280;43298;52.560;13.508;2023-03-01T07:09:33;102428.44;;;-2.51;100.00
13734;BME280;43298;52.560;13.508;2023-03-01T07:11:59;102426.31;;;-2.40;100.00
13734;BME280;43298;52.560;13.508;2023-03-01T07:14:25;102420.91;;;-2.27;100.00
13734;BME280;43298;52.560;13.508;2023-03-01T07:16:52;102424.47;;;-1.99;100.00
13734;BME280;43298;52.560;13.508;2023-03-01T07:19:19;102424.91;;;-1.63;100.00
13734;BME280;43298;52.560;13.508;2023-03-01T07:21:45;102426.75;;;-1.34;100.00
13734;BME280;43298;52.560;13.508;2023-03-01T07:24:11;102429.84;;;-1.43;100.00
13734;BME280;43298;52.560;13.508;2023-03-01T07:26:37;102431.84;;;-1.09;100.00
13734;BME280;43298;52.560;13.508;2023-03-01T07:29:05;102420.59;;;-0.63;100.00
13734;BME280;43298;52.560;13.508;2023-03-01T07:31:32;102417.06;;;-0.41;100.00
13734;BME280;43298;52.560;13.508;2023-03-01T07:33:58;102417.19;;;-0.09;100.00
13734;BME280;43298;52.560;13.508;2023-03-01T07:36:24;102412.66;;;0.11;100.00
13734;BME280;43298;52.560;13.508;2023-03-01T07:38:50;102416.72;;;0.06;100.00
13734;BME280;43298;52.560;13.508;2023-03-01T07:41:17;102410.81;;;0.38;100.00
13734;BME280;43298;52.560;13.508;2023-03-01T07:43:43;102407.53;;;0.42;100.00
13734;BME280;43298;52.560;13.508;2023-03-01T07:46:09;102404.50;;;0.55;100.00
13734;BME280;43298;52.560;13.508;2023-03-01T07:48:35;102408.44;;;0.77;100.00
13734;BME280;43298;52.560;13.508;2023-03-01T07:51:03;102399.91;;;1.10;100.00
13734;BME280;43298;52.560;13.508;2023-03-01T07:53:30;102405.69;;;1.39;100.00
13734;BME280;43298;52.560;13.508;2023-03-01T07:56:09;102405.38;;;1.64;100.00
13734;BME280;43298;52.560;13.508;2023-03-01T07:58:38;102397.34;;;1.86;100.00
13734;BME280;43298;52.560;13.508;2023-03-01T08:01:06;102405.16;;;2.36;100.00
13734;BME280;43298;52.560;13.508;2023-03-01T08:03:33;102404.69;;;2.58;100.00
13734;BME280;43298;52.560;13.508;2023-03-01T08:06:01;102397.09;;;3.13;100.00
13734;BME280;43298;52.560;13.508;2023-03-01T08:08:27;102401.63;;;3.33;100.00
13734;BME280;43298;52.560;13.508;2023-03-01T08:10:57;102406.00;;;3.40;100.00
13734;BME280;43298;52.560;13.508;2023-03-01T08:13:23;102412.81;;;3.39;100.00
13734;BME280;43298;52.560;13.508;2023-03-01T08:15:49;102410.63;;;3.65;100.00
13734;BME280;43298;52.560;13.508;2023-03-01T08:18:17;102414.28;;;3.86;100.00
13734;BME280;43298;52.560;13.508;2023-03-01T08:20:43;102407.59;;;3.96;100.00
13734;BME280;43298;52.560;13.508;2023-03-01T08:23:09;102402.75;;;4.17;100.00
13734;BME280;43298;52.560;13.508;2023-03-01T08:25:35;102402.91;;;3.62;100.00
13734;BME280;43298;52.560;13.508;2023-03-01T08:28:00;102406.88;;;4.07;100.00
13734;BME280;43298;52.560;13.508;2023-03-01T08:30:26;102395.03;;;4.15;100.00
13734;BME280;43298;52.560;13.508;2023-03-01T08:32:52;102382.31;;;4.23;100.00
13734;BME280;43298;52.560;13.508;2023-03-01T08:35:19;102387.59;;;4.39;100.00
13734;BME280;43298;52.560;13.508;2023-03-01T08:37:45;102385.00;;;4.35;100.00
13734;BME280;43298;52.560;13.508;2023-03-01T08:40:12;102385.22;;;4.60;100.00
13734;BME280;43298;52.560;13.508;2023-03-01T08:42:40;102382.88;;;4.83;100.00
13734;BME280;43298;52.560;13.508;2023-03-01T08:45:09;102386.91;;;4.54;100.00
13734;BME280;43298;52.560;13.508;2023-03-01T08:47:35;102391.00;;;4.38;100.00
13734;BME280;43298;52.560;13.508;2023-03-01T08:50:02;102382.63;;;4.53;100.00
13734;BME280;43298;52.560;13.508;2023-03-01T08:52:27;102381.84;;;4.61;100.00
13734;BME280;43298;52.560;13.508;2023-03-01T08:54:54;102371.78;;;4.81;100.00
13734;BME280;43298;52.560;13.508;2023-03-01T08:57:19;102380.22;;;4.71;100.00
13734;BME280;43298;52.560;13.508;2023-03-01T08:59:45;102373.59;;;4.98;100.00
13734;BME280;43298;52.560;13.508;2023-03-01T09:02:17;102369.94;;;4.66;100.00
13734;BME280;43298;52.560;13.508;2023-03-01T09:04:44;102366.88;;;5.14;100.00
13734;BME280;43298;52.560;13.508;2023-03-01T09:07:10;102369.63;;;5.47;100.00
13734;BME280;43298;52.560;13.508;2023-03-01T09:09:37;102358.16;;;4.92;100.00
13734;BME280;43298;52.560;13.508;2023-03-01T09:12:03;102369.88;;;4.60;100.00
13734;BME280;43298;52.560;13.508;2023-03-01T09:14:30;102370.91;;;4.82;100.00
13734;BME280;43298;52.560;13.508;2023-03-01T09:16:55;102369.13;;;4.72;100.00
13734;BME280;43298;52.560;13.508;2023-03-01T09:19:21;102369.97;;;4.71;100.00
13734;BME280;43298;52.560;13.508;2023-03-01T09:21:47;102371.63;;;4.67;100.00
13734;BME280;43298;52.560;13.508;2023-03-01T09:24:23;102371.81;;;4.88;100.00
13734;BME280;43298;52.560;13.508;2023-03-01T09:26:51;102371.22;;;5.24;100.00
13734;BME280;43298;52.560;13.508;2023-03-01T09:29:18;102372.84;;;5.16;100.00
13734;BME280;43298;52.560;13.508;2023-03-01T09:31:44;102361.09;;;5.48;100.00
13734;BME280;43298;52.560;13.508;2023-03-01T09:34:10;102369.91;;;6.01;100.00
13734;BME280;43298;52.560;13.508;2023-03-01T09:36:36;102369.94;;;6.13;100.00
13734;BME280;43298;52.560;13.508;2023-03-01T09:39:03;102364.84;;;6.55;100.00
13734;BME280;43298;52.560;13.508;2023-03-01T09:44:48;102363.16;;;6.54;100.00
13734;BME280;43298;52.560;13.508;2023-03-01T09:47:22;102364.88;;;6.76;100.00
13734;BME280;43298;52.560;13.508;2023-03-01T09:50:17;102353.75;;;6.94;100.00
13734;BME280;43298;52.560;13.508;2023-03-01T09:53:01;102355.44;;;6.68;99.75
13734;BME280;43298;52.560;13.508;2023-03-01T09:55:37;102345.19;;;6.81;96.87
13734;BME280;43298;52.560;13.508;2023-03-01T10:04:45;102350.31;;;6.96;90.03
13734;BME280;43298;52.560;13.508;2023-03-01T10:10:15;102358.84;;;7.04;89.22
13734;BME280;43298;52.560;13.508;2023-03-01T10:12:43;102352.81;;;7.32;89.12
13734;BME280;43298;52.560;13.508;2023-03-01T10:15:30;102357.88;;;7.52;83.72
13734;BME280;43298;52.560;13.508;2023-03-01T10:18:26;102357.91;;;7.49;81.98
13734;BME280;43298;52.560;13.508;2023-03-01T10:21:03;102359.59;;;7.57;81.70
13734;BME280;43298;52.560;13.508;2023-03-01T10:23:32;102355.38;;;7.40;79.43
13734;BME280;43298;52.560;13.508;2023-03-01T10:29:10;102348.22;;;8.03;77.77
13734;BME280;43298;52.560;13.508;2023-03-01T10:31:43;102348.41;;;7.60;74.14
13734;BME280;43298;52.560;13.508;2023-03-01T10:34:28;102350.91;;;7.82;74.36
13734;BME280;43298;52.560;13.508;2023-03-01T10:39:34;102339.47;;;8.37;71.80
13734;BME280;43298;52.560;13.508;2023-03-01T10:42:05;102336.00;;;8.41;70.76
13734;BME280;43298;52.560;13.508;2023-03-01T10:44:48;102332.75;;;8.09;68.89
13734;BME280;43298;52.560;13.508;2023-03-01T10:47:24;102334.94;;;8.65;70.63
13734;BME280;43298;52.560;13.508;2023-03-01T10:50:04;102325.25;;;8.91;66.75
13734;BME280;43298;52.560;13.508;2023-03-01T10:52:34;102321.09;;;9.57;63.59
13734;BME280;43298;52.560;13.508;2023-03-01T10:55:33;102314.34;;;9.45;61.51
13734;BME280;43298;52.560;13.508;2023-03-01T10:58:21;102310.34;;;9.18;63.11
13734;BME280;43298;52.560;13.508;2023-03-01T11:03:29;102308.38;;;9.42;58.85
13734;BME280;43298;52.560;13.508;2023-03-01T11:06:04;102301.75;;;8.23;59.57
13734;BME280;43298;52.560;13.508;2023-03-01T11:08:32;102307.78;;;8.23;60.53
13734;BME280;43298;52.560;13.508;2023-03-01T11:11:29;102304.34;;;8.15;60.89
13734;BME280;43298;52.560;13.508;2023-03-01T11:14:15;102297.09;;;7.22;61.96
13734;BME280;43298;52.560;13.508;2023-03-01T11:16:45;102297.09;;;7.22;62.81
13734;BME280;43298;52.560;13.508;2023-03-01T11:21:50;102293.47;;;7.67;61.27
13734;BME280;43298;52.560;13.508;2023-03-01T11:27:07;102283.78;;;8.12;57.04
13734;BME280;43298;52.560;13.508;2023-03-01T11:29:40;102277.63;;;8.34;55.57
13734;BME280;43298;52.560;13.508;2023-03-01T11:32:11;102289.50;;;8.52;54.95
13734;BME280;43298;52.560;13.508;2023-03-01T11:35:11;102285.97;;;8.63;54.44
13734;BME280;43298;52.560;13.508;2023-03-01T11:44:08;102279.34;;;9.21;52.11
13734;BME280;43298;52.560;13.508;2023-03-01T11:50:13;102279.22;;;9.34;51.04
13734;BME280;43298;52.560;13.508;2023-03-01T11:53:09;102282.00;;;9.84;51.43
13734;BME280;43298;52.560;13.508;2023-03-01T11:56:16;102288.81;;;9.89;53.33
13734;BME280;43298;52.560;13.508;2023-03-01T12:21:36;102252.69;;;9.85;51.98
13734;BME280;43298;52.560;13.508;2023-03-01T12:29:25;102240.13;;;10.20;52.49
13734;BME280;43298;52.560;13.508;2023-03-01T12:42:16;102229.56;;;10.32;50.50
13734;BME280;43298;52.560;13.508;2023-03-01T12:44:41;102223.97;;;10.04;49.51
13734;BME280;43298;52.560;13.508;2023-03-01T12:50:24;102216.53;;;9.83;50.60
13734;BME280;43298;52.560;13.508;2023-03-01T12:52:56;102215.47;;;9.98;50.60
13734;BME280;43298;52.560;13.508;2023-03-01T12:55:39;102209.19;;;10.15;49.96
13734;BME280;43298;52.560;13.508;2023-03-01T13:03:48;102205.00;;;10.07;47.61
13734;BME280;43298;52.560;13.508;2023-03-01T13:06:41;102199.19;;;9.91;47.17
13734;BME280;43298;52.560;13.508;2023-03-01T13:09:37;102194.25;;;9.78;50.23
13734;BME280;43298;52.560;13.508;2023-03-01T13:15:26;102197.25;;;10.04;47.50
13734;BME280;43298;52.560;13.508;2023-03-01T13:20:24;102181.34;;;9.76;47.04
13734;BME280;43298;52.560;13.508;2023-03-01T13:25:28;102191.84;;;9.00;49.14
13734;BME280;43298;52.560;13.508;2023-03-01T13:30:58;102185.44;;;9.32;50.72
13734;BME280;43298;52.560;13.508;2023-03-01T13:33:33;102185.31;;;9.42;52.19
13734;BME280;43298;52.560;13.508;2023-03-01T13:36:00;102171.84;;;9.80;51.96
13734;BME280;43298;52.560;13.508;2023-03-01T13:38:56;102168.34;;;9.82;50.52
13734;BME280;43298;52.560;13.508;2023-03-01T13:41:57;102169.41;;;10.24;50.77
13734;BME280;43298;52.560;13.508;2023-03-01T13:49:32;102160.06;;;9.61;50.77
13734;BME280;43298;52.560;13.508;2023-03-01T13:52:02;102165.72;;;9.26;52.03
13734;BME280;43298;52.560;13.508;2023-03-01T13:54:32;102154.09;;;9.57;53.00
13734;BME280;43298;52.560;13.508;2023-03-01T13:57:00;102157.16;;;9.80;50.75
13734;BME280;43298;52.560;13.508;2023-03-01T13:59:26;102153.09;;;9.67;49.41
13734;BME280;43298;52.560;13.508;2023-03-01T14:02:01;102153.78;;;9.77;47.84
13734;BME280;43298;52.560;13.508;2023-03-01T14:04:32;102158.41;;;9.55;50.38
13734;BME280;43298;52.560;13.508;2023-03-01T14:07:18;102145.44;;;9.60;50.05
13734;BME280;43298;52.560;13.508;2023-03-01T14:09:51;102143.72;;;9.62;50.72
13734;BME280;43298;52.560;13.508;2023-03-01T14:12:43;102136.34;;;9.35;51.27
13734;BME280;43298;52.560;13.508;2023-03-01T14:15:44;102138.38;;;9.13;52.14
13734;BME280;43298;52.560;13.508;2023-03-01T14:18:29;102134.25;;;9.01;53.09
13734;BME280;43298;52.560;13.508;2023-03-01T14:20:59;102134.75;;;8.58;53.29
13734;BME280;43298;52.560;13.508;2023-03-01T14:23:25;102131.34;;;8.56;55.12
13734;BME280;43298;52.560;13.508;2023-03-01T14:25:57;102133.28;;;8.36;56.24
13734;BME280;43298;52.560;13.508;2023-03-01T14:28:29;102124.53;;;8.49;56.19
13734;BME280;43298;52.560;13.508;2023-03-01T14:30:59;102120.31;;;8.40;55.46
13734;BME280;43298;52.560;13.508;2023-03-01T14:36:04;102118.63;;;8.39;57.57
13734;BME280;43298;52.560;13.508;2023-03-01T14:41:05;102117.94;;;8.22;58.32
13734;BME280;43298;52.560;13.508;2023-03-01T14:43:32;102105.13;;;8.13;58.58
13734;BME280;43298;52.560;13.508;2023-03-01T14:45:58;102100.78;;;8.17;58.78